Methuen, MA

12:49 AM EST on January 30, 2015 (GMT -0500)
Timber Lane | Change Station
CLOSE
Current Station
Personal Weather Station
Location: Methuen, MA
Elevation: 112 ft
Nearby Weather Stations
Active Advisory: Winter Storm Warning

Elev 112 ft 42.73 °N, 71.16 °W | Updated 7 seconds ago

Overcast
Overcast
27.5 °F
Feels Like 28 °F
N
0.0
Wind Variable Wind from ESE
Gusts 0.0 mph

Today
High -- | Low -- °F
--% Chance of Precip.
Yesterday
High -- | Low -- °F
Precip. -- in
7:01 AM 4:55 PM
Waxing Gibbous, 80% visible
Pressure 30.05 in
Visibility 10.0 miles
Clouds Mostly Cloudy 2400 ft
Overcast 9000 ft
Windchill 28 °F
Dew Point 21 °F
Humidity 75%
Rainfall 0.00 in
Snow Depth Not available.
UV 0 out of 12
Pollen .10 out of 12
Air Quality Not available.
Flu Activity Not available.
SPECI KLWM 300529Z AUTO 13003KT 10SM BKN024 OVC090 M02/M07 A3005 RMK AO2 T10221067

More Conditions Fewer Conditions

Pressure 30.05 in
Visibility 10.0 miles
Clouds Mostly Cloudy 2400 ft
Overcast 9000 ft
Windchill 28 °F
Dew Point 21 °F
Humidity 75%
Rainfall 0.00 in
Snow Depth Not available.
UV 0 out of 12
Pollen .10 out of 12
Air Quality Not available.
Flu Activity Not available.
SPECI KLWM 300529Z AUTO 13003KT 10SM BKN024 OVC090 M02/M07 A3005 RMK AO2 T10221067

More Conditions Fewer Conditions

10-Day Weather Forecast

Almanac

Astronomy

Jan. 30, 2015 Rise Set
Actual Time
Civil Twilight
Nautical Twilight
Astronomical Twilight
Moon
Length of Visible Light
Length of Day
Tomorrow will be .
, % of the Moon is Illuminated

Today's Extremes

State Highs State Lows

Community

WunderPhotos

Upload Photos

1,791,722 photos uploaded!

WunderBlogs® & News

Nearby

Air Quality

  Air Quality AQ Index Pollutant
Not available.

Snow Depth

Station Depth Elevation

Earthquake Activity

City Distance Mag. Time & Date
Minimum magnitude displayed is 2.5.

Coastal Water Temperatures

Place Temperature

Nearby Weather Stations